Time;durP1;ratioP1;P1;durP2;ratioP2;P2;SDS_P1;SDS_P2;PMS_P1;PMS_P2;Temp;Humidity;BMP_temperature;BMP_pressure;BME280_temperature;BME280_humidity;BME280_pressure;Samples;Min_cycle;Max_cycle;Signal;HPM_P1;HPM_P2
2023/08/31 00:01:09;;;;;;;1.70;1.60;;;;;;;-141.26;100.00;62741.75;5080125;28;20221;-65
2023/08/31 00:03:36;;;;;;;2.03;1.90;;;;;;;-141.26;100.00;62741.75;5063333;28;20217;-65
2023/08/31 00:06:04;;;;;;;2.00;1.80;;;;;;;-141.26;100.00;62741.75;5062989;28;20312;-65
2023/08/31 00:08:32;;;;;;;1.77;1.70;;;;;;;-141.26;100.00;62741.75;5080056;28;20250;-65
2023/08/31 00:11:01;;;;;;;2.13;1.80;;;;;;;-141.26;100.00;62741.75;5081358;28;20222;-65
2023/08/31 00:13:28;;;;;;;2.07;1.87;;;;;;;-141.26;100.00;62741.75;5063140;28;20226;-65
2023/08/31 00:15:57;;;;;;;1.60;1.50;;;;;;;-141.26;100.00;62741.75;5063320;28;20225;-65
2023/08/31 00:18:26;;;;;;;2.10;1.90;;;;;;;-141.26;100.00;62741.75;5063164;28;20214;-65
2023/08/31 00:20:54;;;;;;;1.87;1.77;;;;;;;-141.26;100.00;62741.75;5079769;28;20218;-65
2023/08/31 00:23:21;;;;;;;1.50;1.40;;;;;;;-141.26;100.00;62741.75;5063040;28;20222;-65
2023/08/31 00:25:48;;;;;;;4.10;1.90;;;;;;;-141.26;100.00;62741.75;5080716;28;20233;-65
2023/08/31 00:28:18;;;;;;;1.80;1.70;;;;;;;-141.26;100.00;62741.75;5063043;28;20225;-65
2023/08/31 00:30:48;;;;;;;2.47;1.90;;;;;;;-141.26;100.00;62741.75;5079803;28;20245;-65
2023/08/31 00:33:16;;;;;;;1.63;1.53;;;;;;;-141.26;100.00;62741.75;5062772;28;20234;-65
2023/08/31 00:35:45;;;;;;;1.70;1.60;;;;;;;-141.26;100.00;62741.75;5081078;28;20221;-65
2023/08/31 00:38:13;;;;;;;1.77;1.63;;;;;;;-141.26;100.00;62741.75;5062898;28;20227;-65
2023/08/31 00:40:42;;;;;;;2.33;1.80;;;;;;;-141.26;100.00;62741.75;5064514;28;20229;-65
2023/08/31 00:43:09;;;;;;;1.90;1.80;;;;;;;-141.26;100.00;62741.75;5066146;28;20222;-65
2023/08/31 00:45:37;;;;;;;2.10;1.70;;;;;;;-141.26;100.00;62741.75;5084488;28;20241;-65
2023/08/31 00:48:06;;;;;;;4.83;2.00;;;;;;;-141.26;100.00;62741.75;5082999;28;20308;-65
2023/08/31 00:50:33;;;;;;;2.93;2.00;;;;;;;-141.26;100.00;62741.75;5065990;28;20222;-65
2023/08/31 00:53:01;;;;;;;3.03;2.20;;;;;;;-141.26;100.00;62741.75;5065945;28;20225;-65
2023/08/31 00:55:33;;;;;;;1.80;1.70;;;;;;;-141.26;100.00;62741.75;5082821;28;20268;-65
2023/08/31 00:58:01;;;;;;;1.90;1.67;;;;;;;-141.26;100.00;62741.75;5065986;28;20214;-65
2023/08/31 01:00:38;;;;;;;2.00;1.80;;;;;;;-141.26;100.00;62741.75;5065935;28;20321;-65
2023/08/31 01:03:10;;;;;;;2.20;2.00;;;;;;;-141.26;100.00;62741.75;5084297;28;20212;-65
2023/08/31 01:05:47;;;;;;;1.70;1.60;;;;;;;-141.26;100.00;62741.75;5065999;28;20576;-65
2023/08/31 01:08:34;;;;;;;3.70;1.93;;;;;;;-141.26;100.00;62741.75;5082742;28;20213;-65
2023/08/31 01:11:13;;;;;;;2.33;1.93;;;;;;;-141.26;100.00;62741.75;5065693;28;20218;-65
2023/08/31 01:13:42;;;;;;;2.23;1.87;;;;;;;-141.26;100.00;62741.75;5065546;28;20226;-65
2023/08/31 01:16:10;;;;;;;2.00;1.90;;;;;;;-141.26;100.00;62741.75;5065585;28;20226;-65
2023/08/31 01:18:40;;;;;;;2.27;1.90;;;;;;;-141.26;100.00;62741.75;5065405;28;20219;-65
2023/08/31 01:21:13;;;;;;;2.53;1.87;;;;;;;-141.26;100.00;62741.75;5082383;28;20223;-65
2023/08/31 01:23:54;;;;;;;3.23;1.80;;;;;;;-141.26;100.00;62741.75;5065624;28;20223;-65
2023/08/31 01:26:22;;;;;;;2.43;1.93;;;;;;;-141.26;100.00;62741.75;5078530;28;20239;-65
2023/08/31 01:28:52;;;;;;;2.07;1.97;;;;;;;-141.26;100.00;62741.75;5062085;28;20229;-65
2023/08/31 01:31:20;;;;;;;1.87;1.77;;;;;;;-141.26;100.00;62741.75;5061992;28;20223;-65
2023/08/31 01:33:48;;;;;;;2.23;2.03;;;;;;;-141.26;100.00;62741.75;5078823;28;20237;-65
2023/08/31 01:36:28;;;;;;;1.90;1.80;;;;;;;-141.26;100.00;62741.75;5079053;28;20228;-65
2023/08/31 01:39:05;;;;;;;2.17;1.80;;;;;;;-141.26;100.00;62741.75;5062094;28;20238;-65
2023/08/31 01:41:35;;;;;;;1.90;1.80;;;;;;;-141.26;100.00;62741.75;5062014;28;20304;-65
2023/08/31 01:44:04;;;;;;;2.17;1.87;;;;;;;-141.26;100.00;62741.75;5061867;28;20299;-65
2023/08/31 01:46:31;;;;;;;1.70;1.60;;;;;;;-141.26;100.00;62741.75;5078632;28;20226;-65
2023/08/31 01:49:00;;;;;;;1.90;1.80;;;;;;;-141.26;100.00;62741.75;5061592;28;20231;-65
2023/08/31 01:51:27;;;;;;;2.07;1.93;;;;;;;-141.26;100.00;62741.75;5061123;28;20266;-65
2023/08/31 01:53:55;;;;;;;2.20;2.00;;;;;;;-141.26;100.00;62741.75;5061459;28;20234;-65
2023/08/31 01:56:23;;;;;;;2.10;2.00;;;;;;;-141.26;100.00;62741.75;5061489;28;20236;-65
2023/08/31 01:58:50;;;;;;;1.90;1.80;;;;;;;-141.26;100.00;62741.75;5061655;28;20225;-65
2023/08/31 02:01:18;;;;;;;2.10;1.77;;;;;;;-141.26;100.00;62741.75;5063114;28;20274;-65
2023/08/31 02:03:45;;;;;;;2.10;1.80;;;;;;;-141.26;100.00;62741.75;5078356;28;20231;-65
2023/08/31 02:06:13;;;;;;;2.57;2.10;;;;;;;-141.26;100.00;62741.75;5061614;28;20321;-65
2023/08/31 02:08:40;;;;;;;2.20;2.00;;;;;;;-141.26;100.00;62741.75;5061621;28;20227;-65
2023/08/31 02:11:07;;;;;;;1.90;1.80;;;;;;;-141.26;100.00;62741.75;5061592;28;20234;-65
2023/08/31 02:13:36;;;;;;;2.13;1.90;;;;;;;-141.26;100.00;62741.75;5061218;28;20259;-65
2023/08/31 02:16:03;;;;;;;1.97;1.87;;;;;;;-141.26;100.00;62741.75;5061495;28;20282;-65
2023/08/31 02:18:30;;;;;;;2.00;1.90;;;;;;;-141.26;100.00;62741.75;5061264;28;20227;-65
2023/08/31 02:20:57;;;;;;;2.00;1.80;;;;;;;-141.26;100.00;62741.75;5061309;28;20222;-65
2023/08/31 02:23:24;;;;;;;1.77;1.73;;;;;;;-141.26;100.00;62741.75;5062891;28;20221;-65
2023/08/31 02:25:51;;;;;;;2.50;2.30;;;;;;;-141.26;100.00;62741.75;5063978;28;20672;-65
2023/08/31 02:28:19;;;;;;;2.13;2.03;;;;;;;-141.26;100.00;62741.75;5064645;28;20217;-65
2023/08/31 02:30:58;;;;;;;2.27;2.17;;;;;;;-141.26;100.00;62741.75;5064379;28;20228;-65
2023/08/31 02:33:25;;;;;;;2.27;2.17;;;;;;;-141.26;100.00;62741.75;5081109;28;20214;-65
2023/08/31 02:35:52;;;;;;;2.17;2.07;;;;;;;-141.26;100.00;62741.75;5081334;28;20254;-65
2023/08/31 02:38:19;;;;;;;2.30;2.10;;;;;;;-141.26;100.00;62741.75;5064509;28;20222;-65
2023/08/31 02:40:47;;;;;;;2.43;2.23;;;;;;;-141.26;100.00;62741.75;5064287;28;20321;-65
2023/08/31 02:43:15;;;;;;;2.20;2.00;;;;;;;-141.26;100.00;62741.75;5064404;28;20222;-65
2023/08/31 02:45:42;;;;;;;2.63;2.30;;;;;;;-141.26;100.00;62741.75;5064198;28;20308;-65
2023/08/31 02:48:11;;;;;;;2.53;2.30;;;;;;;-141.26;100.00;62741.75;5081122;28;20316;-65
2023/08/31 02:50:39;;;;;;;2.10;2.00;;;;;;;-141.26;100.00;62741.75;5064423;28;20222;-65
2023/08/31 02:53:06;;;;;;;2.60;2.30;;;;;;;-141.26;100.00;62741.75;5064126;28;20218;-65
2023/08/31 02:55:34;;;;;;;2.40;2.30;;;;;;;-141.26;100.00;62741.75;5064005;28;20235;-65
2023/08/31 02:58:01;;;;;;;2.33;2.10;;;;;;;-141.26;100.00;62741.75;5064157;28;20236;-65
2023/08/31 03:00:28;;;;;;;2.33;2.20;;;;;;;-141.26;100.00;62741.75;5080777;28;20246;-65
2023/08/31 03:02:56;;;;;;;2.30;2.10;;;;;;;-141.26;100.00;62741.75;5063428;28;20229;-65
2023/08/31 03:05:24;;;;;;;2.37;2.17;;;;;;;-141.26;100.00;62741.75;5080232;28;20227;-65
2023/08/31 03:07:52;;;;;;;2.20;2.10;;;;;;;-141.26;100.00;62741.75;5080715;28;20228;-65
2023/08/31 03:10:19;;;;;;;2.20;2.10;;;;;;;-141.26;100.00;62741.75;5063966;28;20242;-65
2023/08/31 03:12:46;;;;;;;2.10;2.00;;;;;;;-141.26;100.00;62741.75;5082138;28;20240;-65
2023/08/31 03:15:16;;;;;;;2.10;2.00;;;;;;;-141.26;100.00;62741.75;5080527;28;20237;-65
2023/08/31 03:17:44;;;;;;;2.20;1.90;;;;;;;-141.26;100.00;62741.75;5082203;28;20280;-65
2023/08/31 03:20:12;;;;;;;2.13;1.90;;;;;;;-141.26;100.00;62741.75;5080677;28;20249;-65
2023/08/31 03:22:40;;;;;;;2.30;2.10;;;;;;;-141.26;100.00;62741.75;5063858;28;20234;-65
2023/08/31 03:25:08;;;;;;;2.47;2.00;;;;;;;-141.26;100.00;62741.75;5063669;28;20243;-65
2023/08/31 03:27:36;;;;;;;2.13;2.03;;;;;;;-141.26;100.00;62741.75;5063272;28;20234;-65
2023/08/31 03:30:04;;;;;;;2.03;1.70;;;;;;;-141.26;100.00;62741.75;5063511;28;20213;-65
2023/08/31 03:32:31;;;;;;;2.93;1.93;;;;;;;-141.26;100.00;62741.75;5063611;28;20224;-65
2023/08/31 03:34:59;;;;;;;1.93;1.70;;;;;;;-141.26;100.00;62741.75;5080221;28;20235;-65
2023/08/31 03:37:26;;;;;;;2.50;2.00;;;;;;;-141.26;100.00;62741.75;5063602;28;20247;-65
2023/08/31 03:39:55;;;;;;;1.80;1.60;;;;;;;-141.26;100.00;62741.75;5063588;28;20227;-65
2023/08/31 03:42:23;;;;;;;2.10;2.00;;;;;;;-141.26;100.00;62741.75;5063394;28;20211;-65
2023/08/31 03:44:50;;;;;;;2.00;1.80;;;;;;;-141.26;100.00;62741.75;5063248;28;20226;-65
2023/08/31 03:47:18;;;;;;;2.93;2.53;;;;;;;-141.26;100.00;62741.75;5063467;28;20310;-65
2023/08/31 03:49:45;;;;;;;2.40;2.20;;;;;;;-141.26;100.00;62741.75;5063479;28;20222;-65
2023/08/31 03:52:12;;;;;;;3.90;2.50;;;;;;;-141.26;100.00;62741.75;5063504;28;20211;-65
2023/08/31 03:54:39;;;;;;;3.63;2.30;;;;;;;-141.26;100.00;62741.75;5081634;28;20232;-65
2023/08/31 03:57:08;;;;;;;2.20;2.10;;;;;;;-141.26;100.00;62741.75;5063426;28;20216;-65
2023/08/31 03:59:35;;;;;;;2.67;2.23;;;;;;;-141.26;100.00;62741.75;5063299;28;20222;-65
2023/08/31 04:02:02;;;;;;;6.03;2.93;;;;;;;-141.26;100.00;62741.75;5080117;28;20242;-65
2023/08/31 04:04:32;;;;;;;2.60;2.40;;;;;;;-141.26;100.00;62741.75;5063340;28;20224;-65
2023/08/31 04:06:59;;;;;;;2.67;2.37;;;;;;;-141.26;100.00;62741.75;5063368;28;20225;-65
2023/08/31 04:09:26;;;;;;;4.33;2.23;;;;;;;-141.26;100.00;62741.75;5079895;28;20296;-65
2023/08/31 04:11:53;;;;;;;2.50;2.40;;;;;;;-141.26;100.00;62741.75;5079978;28;20220;-65
2023/08/31 04:14:22;;;;;;;2.83;2.43;;;;;;;-141.26;100.00;62741.75;5081241;28;20232;-65
2023/08/31 04:16:50;;;;;;;3.00;2.80;;;;;;;-141.26;100.00;62741.75;5084827;28;20227;-65
2023/08/31 04:19:17;;;;;;;3.97;2.73;;;;;;;-141.26;100.00;62741.75;5083412;28;20254;-65
2023/08/31 04:21:44;;;;;;;2.97;2.80;;;;;;;-141.26;100.00;62741.75;5066501;28;20219;-65
2023/08/31 04:24:11;;;;;;;2.83;2.73;;;;;;;-141.26;100.00;62741.75;5083526;28;20225;-65
2023/08/31 04:26:38;;;;;;;2.87;2.73;;;;;;;-141.26;100.00;62741.75;5084046;28;20248;-65
2023/08/31 04:29:06;;;;;;;4.57;2.77;;;;;;;-141.26;100.00;62741.75;5066247;28;20235;-65
2023/08/31 04:31:34;;;;;;;3.23;2.93;;;;;;;-141.26;100.00;62741.75;5084683;28;20225;-65
2023/08/31 04:34:02;;;;;;;3.40;2.90;;;;;;;-141.26;100.00;62741.75;5066292;28;20222;-65
2023/08/31 04:36:29;;;;;;;4.40;3.40;;;;;;;-141.26;100.00;62741.75;5066299;28;20225;-65
2023/08/31 04:38:56;;;;;;;3.30;3.00;;;;;;;-141.26;100.00;62741.75;5066345;28;20273;-65
2023/08/31 04:41:23;;;;;;;3.20;3.00;;;;;;;-141.26;100.00;62741.75;5084614;28;20252;-65
2023/08/31 04:43:50;;;;;;;3.23;3.03;;;;;;;-141.26;100.00;62741.75;5083009;28;20282;-65
2023/08/31 04:46:17;;;;;;;3.20;3.00;;;;;;;-141.26;100.00;62741.75;5083144;28;20272;-65
2023/08/31 04:48:46;;;;;;;5.40;3.47;;;;;;;-141.26;100.00;62741.75;5066061;28;20218;-65
2023/08/31 04:51:29;;;;;;;3.77;3.43;;;;;;;-141.26;100.00;62741.75;5083068;28;20216;-65
2023/08/31 04:53:56;;;;;;;3.70;3.40;;;;;;;-141.26;100.00;62741.75;5083099;28;20216;-65
2023/08/31 04:56:23;;;;;;;3.87;3.33;;;;;;;-141.26;100.00;62741.75;5065643;28;20289;-65
2023/08/31 04:58:50;;;;;;;3.20;2.97;;;;;;;-141.26;100.00;62741.75;5066056;28;20219;-65
2023/08/31 05:01:17;;;;;;;3.33;3.03;;;;;;;-141.26;100.00;62741.75;5066008;28;20223;-65
2023/08/31 05:03:46;;;;;;;3.50;3.20;;;;;;;-141.26;100.00;62741.75;5065857;28;20218;-65
2023/08/31 05:06:14;;;;;;;4.37;2.80;;;;;;;-141.26;100.00;62741.75;5065875;28;20221;-65
2023/08/31 05:08:41;;;;;;;3.30;3.00;;;;;;;-141.26;100.00;62741.75;5065726;28;20309;-65
2023/08/31 05:11:08;;;;;;;4.57;2.83;;;;;;;-141.26;100.00;62741.75;5082469;28;20231;-65
2023/08/31 05:13:35;;;;;;;3.87;2.97;;;;;;;-141.26;100.00;62741.75;5082570;28;20222;-65
2023/08/31 05:16:03;;;;;;;4.67;3.17;;;;;;;-141.26;100.00;62741.75;5082503;28;20290;-65
2023/08/31 05:18:32;;;;;;;4.83;3.03;;;;;;;-141.26;100.00;62741.75;5065527;28;20306;-65
2023/08/31 05:21:00;;;;;;;3.27;2.80;;;;;;;-141.26;100.00;62741.75;5065560;28;20224;-65
2023/08/31 05:23:27;;;;;;;3.00;2.70;;;;;;;-141.26;100.00;62741.75;5065516;28;20245;-65
2023/08/31 05:25:56;;;;;;;3.57;2.80;;;;;;;-141.26;100.00;62741.75;5082901;28;20242;-65
2023/08/31 05:28:23;;;;;;;3.07;2.67;;;;;;;-141.26;100.00;62741.75;5064860;28;20210;-65
2023/08/31 05:30:52;;;;;;;3.33;2.50;;;;;;;-141.26;100.00;62741.75;5082364;28;20233;-65
2023/08/31 05:33:19;;;;;;;3.33;2.60;;;;;;;-141.26;100.00;62741.75;5065283;28;20253;-65
2023/08/31 05:35:46;;;;;;;4.50;2.70;;;;;;;-141.26;100.00;62741.75;5082129;28;20226;-65
2023/08/31 05:38:15;;;;;;;3.80;2.73;;;;;;;-141.26;100.00;62741.75;5065259;28;20242;-65
2023/08/31 05:40:45;;;;;;;2.90;2.40;;;;;;;-141.26;100.00;62741.75;5081932;28;20220;-65
2023/08/31 05:43:12;;;;;;;3.37;2.27;;;;;;;-141.26;100.00;62741.75;5065313;28;20283;-65
2023/08/31 05:45:39;;;;;;;9.77;4.63;;;;;;;-141.26;100.00;62741.75;5065163;28;20240;-65
2023/08/31 05:48:06;;;;;;;8.70;4.30;;;;;;;-141.26;100.00;62741.75;5065096;28;20304;-65
2023/08/31 05:50:34;;;;;;;2.90;2.40;;;;;;;-141.26;100.00;62741.75;5065125;28;20287;-65
2023/08/31 05:53:01;;;;;;;2.50;2.30;;;;;;;-141.26;100.00;62741.75;5065080;28;20224;-65
2023/08/31 05:55:29;;;;;;;2.77;2.60;;;;;;;-141.26;100.00;62741.75;5083134;28;20233;-65
2023/08/31 05:57:56;;;;;;;2.33;2.23;;;;;;;-141.26;100.00;62741.75;5081980;28;20280;-65
2023/08/31 06:00:23;;;;;;;2.47;2.27;;;;;;;-141.26;100.00;62741.75;5064901;28;20259;-65
2023/08/31 06:02:50;;;;;;;2.10;2.00;;;;;;;-141.26;100.00;62741.75;5081943;28;20224;-65
2023/08/31 06:05:18;;;;;;;2.37;2.13;;;;;;;-141.26;100.00;62741.75;5064869;28;20252;-65
2023/08/31 06:07:45;;;;;;;2.33;2.13;;;;;;;-141.26;100.00;62741.75;5064978;28;20282;-65
2023/08/31 06:10:14;;;;;;;2.40;2.20;;;;;;;-141.26;100.00;62741.75;5081740;28;20231;-65
2023/08/31 06:12:43;;;;;;;3.47;2.50;;;;;;;-141.26;100.00;62741.75;5081594;28;20224;-65
2023/08/31 06:15:11;;;;;;;3.13;2.83;;;;;;;-141.26;100.00;62741.75;5081406;28;20229;-65
2023/08/31 06:17:38;;;;;;;2.50;2.30;;;;;;;-141.26;100.00;62741.75;5064910;28;20214;-65
2023/08/31 06:20:06;;;;;;;2.70;2.50;;;;;;;-141.26;100.00;62741.75;5082992;28;20255;-65
2023/08/31 06:22:33;;;;;;;2.60;2.40;;;;;;;-141.26;100.00;62741.75;5064699;28;20232;-65
2023/08/31 06:25:01;;;;;;;2.90;2.70;;;;;;;-141.26;100.00;62741.75;5082749;28;20247;-65
2023/08/31 06:27:28;;;;;;;2.97;2.67;;;;;;;-141.26;100.00;62741.75;5077762;28;20249;-65
2023/08/31 06:29:57;;;;;;;2.50;2.30;;;;;;;-141.26;100.00;62741.75;5061225;28;20229;-65
2023/08/31 06:32:24;;;;;;;2.50;2.30;;;;;;;-141.26;100.00;62741.75;5077997;28;20287;-65
2023/08/31 06:34:51;;;;;;;2.53;2.33;;;;;;;-141.26;100.00;62741.75;5060837;28;20264;-65
2023/08/31 06:37:20;;;;;;;2.60;2.40;;;;;;;-141.26;100.00;62741.75;5062482;28;20226;-65
2023/08/31 06:39:48;;;;;;;2.40;2.20;;;;;;;-141.26;100.00;62741.75;5061004;28;20249;-65
2023/08/31 06:42:17;;;;;;;3.23;2.33;;;;;;;-141.26;100.00;62741.75;5061016;28;20307;-65
2023/08/31 06:44:45;;;;;;;2.93;2.30;;;;;;;-141.26;100.00;62741.75;5060965;28;20220;-65
2023/08/31 06:47:17;;;;;;;2.50;2.30;;;;;;;-141.26;100.00;62741.75;5060861;28;20229;-65
2023/08/31 06:49:44;;;;;;;4.70;2.40;;;;;;;-141.26;100.00;62741.75;5061032;28;20219;-65
2023/08/31 06:52:11;;;;;;;2.33;2.13;;;;;;;-141.26;100.00;62741.75;5060696;28;20220;-65
2023/08/31 06:54:38;;;;;;;3.47;2.23;;;;;;;-141.26;100.00;62741.75;5060850;28;20302;-65
2023/08/31 06:57:06;;;;;;;5.03;1.90;;;;;;;-141.26;100.00;62741.75;5060545;28;20224;-65
2023/08/31 06:59:33;;;;;;;2.37;2.17;;;;;;;-141.26;100.00;62741.75;5077591;28;20212;-65
2023/08/31 07:02:00;;;;;;;3.03;2.57;;;;;;;-141.26;100.00;62741.75;5062123;28;20271;-65
2023/08/31 07:04:29;;;;;;;2.40;2.30;;;;;;;-141.26;100.00;62741.75;5060685;28;20223;-65
2023/08/31 07:06:56;;;;;;;2.37;2.17;;;;;;;-141.26;100.00;62741.75;5077204;28;20273;-65
2023/08/31 07:09:23;;;;;;;2.43;2.23;;;;;;;-141.26;100.00;62741.75;5062267;28;20274;-65
2023/08/31 07:11:50;;;;;;;2.63;2.43;;;;;;;-141.26;100.00;62741.75;5060505;28;20242;-65
2023/08/31 07:14:18;;;;;;;2.47;2.27;;;;;;;-141.26;100.00;62741.75;5077401;28;20222;-65
2023/08/31 07:16:45;;;;;;;2.40;2.17;;;;;;;-141.26;100.00;62741.75;5077308;28;20232;-65
2023/08/31 07:19:12;;;;;;;2.70;2.27;;;;;;;-141.26;100.00;62741.75;5060396;28;20330;-65
2023/08/31 07:21:41;;;;;;;2.60;2.40;;;;;;;-141.26;100.00;62741.75;5060355;28;20267;-65
2023/08/31 07:24:08;;;;;;;3.13;2.83;;;;;;;-141.26;100.00;62741.75;5061711;28;20215;-65
2023/08/31 07:26:35;;;;;;;3.40;2.53;;;;;;;-141.26;100.00;62741.75;5060013;28;20300;-65
2023/08/31 07:29:04;;;;;;;3.17;2.90;;;;;;;-141.26;100.00;62741.75;5060279;28;20216;-65
2023/08/31 07:31:31;;;;;;;3.87;2.70;;;;;;;-141.26;100.00;62741.75;5077283;28;20287;-65
2023/08/31 07:33:58;;;;;;;4.13;2.60;;;;;;;-141.26;100.00;62741.75;5060350;28;20227;-65
2023/08/31 07:36:26;;;;;;;2.97;2.77;;;;;;;-141.26;100.00;62741.75;5061524;28;20223;-65
2023/08/31 07:38:55;;;;;;;2.90;2.60;;;;;;;-141.26;100.00;62741.75;5060462;28;20236;-65
2023/08/31 07:41:22;;;;;;;4.50;3.17;;;;;;;-141.26;100.00;62741.75;5077091;28;20247;-65
2023/08/31 07:43:50;;;;;;;3.10;2.90;;;;;;;-141.26;100.00;62741.75;5060170;28;20222;-65
2023/08/31 07:46:17;;;;;;;3.77;2.70;;;;;;;-141.26;100.00;62741.75;5061678;28;20283;-65
2023/08/31 07:48:44;;;;;;;5.10;3.20;;;;;;;-141.26;100.00;62741.75;5060159;28;20276;-65
2023/08/31 07:51:11;;;;;;;2.90;2.53;;;;;;;-141.26;100.00;62741.75;5062782;28;20228;-65
2023/08/31 07:53:39;;;;;;;5.13;2.47;;;;;;;-141.26;100.00;62741.75;5063623;28;20221;-65
2023/08/31 07:56:08;;;;;;;2.70;2.50;;;;;;;-141.26;100.00;62741.75;5063542;28;20257;-65
2023/08/31 07:58:35;;;;;;;2.77;2.57;;;;;;;-141.26;100.00;62741.75;5063655;28;20246;-65
2023/08/31 08:01:03;;;;;;;2.40;2.30;;;;;;;-141.26;100.00;62741.75;5063570;28;20228;-65
2023/08/31 08:03:30;;;;;;;2.87;2.67;;;;;;;-141.26;100.00;62741.75;5063342;28;20252;-65
2023/08/31 08:05:58;;;;;;;2.33;2.23;;;;;;;-141.26;100.00;62741.75;5063361;28;20226;-65
2023/08/31 08:08:25;;;;;;;3.33;2.73;;;;;;;-141.26;100.00;62741.75;5064888;28;20226;-65
2023/08/31 08:10:53;;;;;;;2.73;2.53;;;;;;;-141.26;100.00;62741.75;5063264;28;20217;-65
2023/08/31 08:13:22;;;;;;;2.63;2.40;;;;;;;-141.26;100.00;62741.75;5064569;28;20237;-65
2023/08/31 08:15:49;;;;;;;2.60;2.40;;;;;;;-141.26;100.00;62741.75;5063321;28;20261;-65
2023/08/31 08:18:17;;;;;;;2.53;2.33;;;;;;;-141.26;100.00;62741.75;5064677;28;20236;-65
2023/08/31 08:20:44;;;;;;;2.40;2.17;;;;;;;-141.26;100.00;62741.75;5063048;28;20224;-65
2023/08/31 08:23:11;;;;;;;2.97;2.77;;;;;;;-141.26;100.00;62741.75;5063205;28;20227;-65
2023/08/31 08:25:38;;;;;;;2.50;2.20;;;;;;;-141.26;100.00;62741.75;5063805;28;20281;-65
2023/08/31 08:28:05;;;;;;;2.43;2.23;;;;;;;-141.26;100.00;62741.75;5083180;28;20231;-65
2023/08/31 08:30:34;;;;;;;2.53;2.20;;;;;;;-141.26;100.00;62741.75;5066369;28;20222;-65
2023/08/31 08:33:02;;;;;;;2.50;2.23;;;;;;;-141.26;100.00;62741.75;5083238;28;20275;-65
2023/08/31 08:35:29;;;;;;;2.10;2.00;;;;;;;-141.26;100.00;62741.75;5082908;28;20252;-65
2023/08/31 08:37:56;;;;;;;2.07;1.97;;;;;;;-141.26;100.00;62741.75;5066260;28;20280;-65
2023/08/31 08:40:23;;;;;;;2.37;2.17;;;;;;;-141.26;100.00;62741.75;5083115;28;20309;-65
2023/08/31 08:42:54;;;;;;;2.87;2.50;;;;;;;-141.26;100.00;62741.75;5084426;28;20241;-65
2023/08/31 08:45:24;;;;;;;2.37;2.17;;;;;;;-141.26;100.00;62741.75;5066411;28;20221;-65
2023/08/31 08:47:53;;;;;;;2.80;2.30;;;;;;;-141.26;100.00;62741.75;5082824;28;20220;-65
2023/08/31 08:50:23;;;;;;;2.37;2.20;;;;;;;-141.26;100.00;62741.75;5084522;28;20308;-65
2023/08/31 08:52:51;;;;;;;3.17;2.37;;;;;;;-141.26;100.00;62741.75;5066024;28;20230;-65
2023/08/31 08:55:20;;;;;;;3.23;2.87;;;;;;;-141.26;100.00;62741.75;5082666;28;20232;-65
2023/08/31 08:57:47;;;;;;;2.83;2.63;;;;;;;-141.26;100.00;62741.75;5066054;28;20230;-65
2023/08/31 09:00:15;;;;;;;2.63;2.43;;;;;;;-141.26;100.00;62741.75;5066023;28;20244;-65
2023/08/31 09:02:43;;;;;;;2.60;2.40;;;;;;;-141.26;100.00;62741.75;5065596;28;20236;-65
2023/08/31 09:05:11;;;;;;;1.90;1.67;;;;;;;-141.26;100.00;62741.75;5084161;28;20221;-65
2023/08/31 09:08:01;;;;;;;4.70;1.93;;;;;;;-141.26;100.00;62741.75;5065813;28;20222;-65
2023/08/31 09:10:35;;;;;;;5.03;3.80;;;;;;;-141.26;100.00;62741.75;5084246;28;20209;-65
2023/08/31 09:13:05;;;;;;;5.33;3.40;;;;;;;-141.26;100.00;62741.75;5082552;28;20253;-65
2023/08/31 09:15:44;;;;;;;5.03;4.53;;;;;;;-141.26;100.00;62741.75;5083717;28;20245;-65
2023/08/31 09:18:16;;;;;;;4.33;3.73;;;;;;;-141.26;100.00;62741.75;5084112;28;20205;-65
2023/08/31 09:20:48;;;;;;;3.23;2.30;;;;;;;-141.26;100.00;62741.75;5065578;28;20261;-65
2023/08/31 09:23:16;;;;;;;2.40;2.20;;;;;;;-141.26;100.00;62741.75;5065614;28;20325;-65
2023/08/31 09:25:44;;;;;;;3.63;2.10;;;;;;;-141.26;100.00;62741.75;5081657;28;20224;-65
2023/08/31 09:28:13;;;;;;;2.07;1.90;;;;;;;-141.26;100.00;62741.75;5065540;28;20232;-65
2023/08/31 09:30:41;;;;;;;1.63;1.53;;;;;;;-141.26;100.00;62741.75;5065487;28;20278;-65
2023/08/31 09:33:09;;;;;;;1.77;1.67;;;;;;;-141.26;100.00;62741.75;5065136;28;20234;-65
2023/08/31 09:35:41;;;;;;;2.03;1.30;;;;;;;-141.26;100.00;62741.75;5083604;28;20252;-65
2023/08/31 09:38:10;;;;;;;2.30;1.50;;;;;;;-141.26;100.00;62741.75;5083864;28;20209;-65
2023/08/31 09:40:38;;;;;;;2.83;1.70;;;;;;;-141.26;100.00;62741.75;5065183;28;20313;-65
2023/08/31 09:43:05;;;;;;;1.67;1.57;;;;;;;-141.26;100.00;62741.75;5065304;28;20229;-65
2023/08/31 09:45:34;;;;;;;1.87;1.50;;;;;;;-141.26;100.00;62741.75;5065115;28;20242;-65
2023/08/31 09:48:03;;;;;;;1.70;1.60;;;;;;;-141.26;100.00;62741.75;5081959;28;20232;-65
2023/08/31 09:50:31;;;;;;;1.43;1.33;;;;;;;-141.26;100.00;62741.75;5082131;28;20232;-65
2023/08/31 09:53:03;;;;;;;2.00;1.90;;;;;;;-141.26;100.00;62741.75;5065167;28;20305;-65
2023/08/31 09:55:33;;;;;;;1.70;1.60;;;;;;;-141.26;100.00;62741.75;5083536;28;20211;-65
2023/08/31 09:58:02;;;;;;;1.53;1.43;;;;;;;-141.26;100.00;62741.75;5064959;28;20252;-65
2023/08/31 10:00:31;;;;;;;1.50;1.40;;;;;;;-141.26;100.00;62741.75;5064985;28;20232;-65
2023/08/31 10:03:02;;;;;;;1.43;1.33;;;;;;;-141.26;100.00;62741.75;5083200;28;20222;-65
2023/08/31 10:05:30;;;;;;;1.37;1.27;;;;;;;-141.26;100.00;62741.75;5081855;28;20222;-65
2023/08/31 10:07:59;;;;;;;1.20;1.20;;;;;;;-141.26;100.00;62741.75;5083173;28;20252;-65
2023/08/31 10:10:27;;;;;;;1.50;1.40;;;;;;;-141.26;100.00;62741.75;5083162;28;20244;-65
2023/08/31 10:12:56;;;;;;;1.70;1.60;;;;;;;-141.26;100.00;62741.75;5080888;28;20281;-65
2023/08/31 10:15:24;;;;;;;1.87;1.40;;;;;;;-141.26;100.00;62741.75;5064545;28;20244;-65
2023/08/31 10:17:51;;;;;;;1.40;1.30;;;;;;;-141.26;100.00;62741.75;5064694;28;20241;-65
2023/08/31 10:20:19;;;;;;;1.23;1.13;;;;;;;-141.26;100.00;62741.75;5064581;28;20226;-65
2023/08/31 10:22:46;;;;;;;1.50;1.40;;;;;;;-141.26;100.00;62741.75;5064427;28;20229;-65
2023/08/31 10:25:13;;;;;;;1.40;1.30;;;;;;;-141.26;100.00;62741.75;5082962;28;20210;-65
2023/08/31 10:27:41;;;;;;;2.90;1.50;;;;;;;-141.26;100.00;62741.75;5064214;28;20265;-65
2023/08/31 10:30:31;;;;;;;1.80;1.53;;;;;;;-141.26;100.00;62741.75;5081215;28;20226;-65
2023/08/31 10:33:24;;;;;;;1.57;1.20;;;;;;;-141.26;100.00;62741.75;5061910;28;20214;-65
2023/08/31 10:35:52;;;;;;;1.57;1.23;;;;;;;-141.26;100.00;62741.75;5082777;28;20212;-65
2023/08/31 10:38:26;;;;;;;1.13;1.03;;;;;;;-141.26;100.00;62741.75;5082555;28;20234;-65
2023/08/31 10:41:18;;;;;;;1.40;1.30;;;;;;;-141.26;100.00;62741.75;5081242;28;20214;-65
2023/08/31 10:43:46;;;;;;;1.23;1.13;;;;;;;-141.26;100.00;62741.75;5064284;28;20309;-65
2023/08/31 10:46:31;;;;;;;1.10;1.10;;;;;;;-141.26;100.00;62741.75;5064144;28;20240;-65
2023/08/31 10:49:00;;;;;;;3.80;1.23;;;;;;;-141.26;100.00;62741.75;5064302;28;20209;-65
2023/08/31 10:51:29;;;;;;;1.63;1.10;;;;;;;-141.26;100.00;62741.75;5082387;28;20206;-65
2023/08/31 10:54:06;;;;;;;0.90;0.90;;;;;;;-141.26;100.00;62741.75;5082200;28;20210;-65
2023/08/31 10:56:33;;;;;;;1.17;1.10;;;;;;;-141.26;100.00;62741.75;5082342;28;20229;-65
2023/08/31 10:59:02;;;;;;;1.10;1.10;;;;;;;-141.26;100.00;62741.75;5082400;28;20218;-65
2023/08/31 11:01:54;;;;;;;0.80;0.80;;;;;;;-141.26;100.00;62741.75;5082236;28;20218;-65
2023/08/31 11:04:21;;;;;;;1.20;1.10;;;;;;;-141.26;100.00;62741.75;5064084;28;20238;-65
2023/08/31 11:06:48;;;;;;;2.40;1.30;;;;;;;-141.26;100.00;62741.75;5063882;28;20226;-65
2023/08/31 11:09:21;;;;;;;1.00;1.00;;;;;;;-141.26;100.00;62741.75;5082286;28;20214;-66
2023/08/31 11:11:48;;;;;;;1.00;0.90;;;;;;;-141.26;100.00;62741.75;5080884;28;20215;-66
2023/08/31 11:14:17;;;;;;;1.07;1.07;;;;;;;-141.26;100.00;62741.75;5063703;28;20229;-66
2023/08/31 11:16:45;;;;;;;1.90;1.03;;;;;;;-141.26;100.00;62741.75;5080751;28;20321;-66